createdAt,value
2023-05-03T00:02:06.395Z,9.29
2023-05-03T00:07:08.571Z,9.22
2023-05-03T00:12:10.242Z,9.29
2023-05-03T00:17:13.069Z,9.06
2023-05-03T00:22:14.683Z,9.07
2023-05-03T00:27:16.276Z,9.19
2023-05-03T00:32:18.567Z,9.13
2023-05-03T00:37:20.371Z,9.06
2023-05-03T00:42:22.042Z,8.89
2023-05-03T00:47:24.444Z,8.96
2023-05-03T00:52:27.056Z,9.09
2023-05-03T00:57:30.830Z,9.16
2023-05-03T01:02:32.689Z,9.01
2023-05-03T01:07:55.979Z,9.09
2023-05-03T01:13:42.686Z,8.97
2023-05-03T01:18:48.932Z,8.70
2023-05-03T01:24:13.757Z,8.76
2023-05-03T01:29:15.460Z,8.49
2023-05-03T01:34:17.003Z,8.56
2023-05-03T01:39:23.298Z,8.57
2023-05-03T01:44:25.558Z,8.66
2023-05-03T01:49:27.204Z,8.34
2023-05-03T01:54:30.129Z,8.26
2023-05-03T01:59:32.148Z,8.27
2023-05-03T02:04:33.954Z,8.24
2023-05-03T02:09:35.602Z,8.34
2023-05-03T02:14:37.339Z,8.57
2023-05-03T02:19:38.929Z,8.32
2023-05-03T02:24:41.675Z,8.72
2023-05-03T02:29:43.576Z,8.39
2023-05-03T02:34:48.707Z,8.14
2023-05-03T02:39:54.392Z,7.90
2023-05-03T02:44:56.100Z,7.96
2023-05-03T02:49:58.741Z,8.00
2023-05-03T02:55:01.230Z,8.02
2023-05-03T03:00:05.556Z,7.94
2023-05-03T03:05:09.301Z,7.89
2023-05-03T03:10:11.239Z,7.93
2023-05-03T03:15:13.393Z,7.86
2023-05-03T03:20:15.927Z,7.86
2023-05-03T03:25:22.044Z,7.72
2023-05-03T03:30:24.380Z,7.47
2023-05-03T03:35:36.983Z,7.53
2023-05-03T03:40:40.025Z,7.51
2023-05-03T03:45:41.805Z,7.40
2023-05-03T03:50:48.635Z,7.46
2023-05-03T03:55:50.475Z,7.38
2023-05-03T04:00:53.574Z,7.23
2023-05-03T04:05:58.230Z,7.20
2023-05-03T04:11:02.403Z,7.32
2023-05-03T04:16:07.835Z,7.19
2023-05-03T04:21:10.714Z,7.41
2023-05-03T04:26:23.912Z,7.56
2023-05-03T04:31:32.958Z,7.57
2023-05-03T04:36:35.328Z,8.03
2023-05-03T04:41:37.158Z,8.00
2023-05-03T04:46:39.628Z,7.83
2023-05-03T04:51:42.479Z,7.61
2023-05-03T04:56:44.271Z,7.88
2023-05-03T05:01:50.919Z,8.03
2023-05-03T05:06:54.325Z,7.83
2023-05-03T05:12:02.000Z,7.92
2023-05-03T05:17:09.393Z,7.75
2023-05-03T05:22:11.251Z,7.61
2023-05-03T05:27:25.435Z,7.88
2023-05-03T05:32:28.875Z,7.99
2023-05-03T05:37:33.375Z,8.32
2023-05-03T05:42:38.278Z,8.06
2023-05-03T05:47:41.664Z,8.31
2023-05-03T05:52:43.909Z,8.46
2023-05-03T05:57:47.823Z,8.50
2023-05-03T06:02:52.271Z,8.63
2023-05-03T06:07:56.473Z,8.54
2023-05-03T06:12:58.071Z,8.90
2023-05-03T06:18:01.371Z,8.88
2023-05-03T06:23:03.005Z,9.10
2023-05-03T06:28:04.934Z,9.21
2023-05-03T06:33:13.663Z,9.38
2023-05-03T06:38:16.393Z,9.56
2023-05-03T06:43:18.182Z,10.03
2023-05-03T06:48:26.380Z,10.19
2023-05-03T06:53:28.912Z,10.50
2023-05-03T06:58:30.790Z,10.79
2023-05-03T07:03:32.717Z,11.09
2023-05-03T07:08:34.417Z,11.08
2023-05-03T07:13:36.188Z,11.63
2023-05-03T07:18:37.742Z,11.96
2023-05-03T07:23:39.906Z,11.72
2023-05-03T07:28:41.925Z,12.25
2023-05-03T07:33:43.866Z,12.09
2023-05-03T07:38:45.510Z,11.76
2023-05-03T07:43:47.586Z,11.57
2023-05-03T07:48:49.461Z,11.56
2023-05-03T07:53:51.191Z,11.59
2023-05-03T07:59:04.579Z,11.13
2023-05-03T08:04:10.633Z,11.79
2023-05-03T08:09:12.449Z,12.15
2023-05-03T08:14:14.035Z,11.97
2023-05-03T08:19:15.820Z,12.72
2023-05-03T08:24:17.406Z,12.14
2023-05-03T08:29:18.984Z,12.32
2023-05-03T08:34:20.734Z,12.26
2023-05-03T08:39:22.585Z,12.18
2023-05-03T08:44:29.487Z,12.72
2023-05-03T08:49:31.253Z,12.43
2023-05-03T08:54:33.040Z,12.25
2023-05-03T08:59:34.602Z,12.47
2023-05-03T09:04:36.311Z,12.96
2023-05-03T09:09:38.425Z,13.16
2023-05-03T09:14:45.087Z,13.18
2023-05-03T09:19:54.431Z,13.71
2023-05-03T09:24:57.294Z,14.18
2023-05-03T09:30:18.174Z,14.28
2023-05-03T09:35:19.756Z,14.61
2023-05-03T09:40:25.654Z,14.44
2023-05-03T09:45:27.251Z,14.10
2023-05-03T09:50:29.362Z,14.73
2023-05-03T09:55:39.514Z,15.42
2023-05-03T10:00:42.620Z,16.18
2023-05-03T10:05:49.463Z,15.00
2023-05-03T10:10:53.585Z,15.80
2023-05-03T10:16:17.989Z,16.29
2023-05-03T10:21:48.878Z,16.40
2023-05-03T10:26:51.528Z,16.90
2023-05-03T10:31:53.151Z,16.28
2023-05-03T10:36:54.957Z,15.50
2023-05-03T10:42:03.442Z,15.12
2023-05-03T10:47:19.246Z,15.89
2023-05-03T10:52:36.088Z,16.39
2023-05-03T10:57:42.682Z,16.76
2023-05-03T11:03:00.834Z,15.65
2023-05-03T11:08:38.012Z,16.11
2023-05-03T11:13:39.701Z,17.53
2023-05-03T11:18:41.997Z,17.11
2023-05-03T11:23:45.076Z,15.94
2023-05-03T11:28:46.645Z,15.97
2023-05-03T11:33:49.445Z,16.92
2023-05-03T11:38:51.132Z,17.57
2023-05-03T11:44:03.889Z,17.17
2023-05-03T11:49:10.093Z,16.48
2023-05-03T11:54:24.080Z,16.17
2023-05-03T11:59:38.866Z,17.09
2023-05-03T12:04:44.338Z,17.31
2023-05-03T12:09:52.453Z,17.46
2023-05-03T12:15:04.350Z,17.51
2023-05-03T12:25:28.137Z,17.42
2023-05-03T12:30:32.832Z,17.33
2023-05-03T12:35:36.203Z,17.70
2023-05-03T12:40:40.835Z,17.49
2023-05-03T12:45:47.002Z,17.35
2023-05-03T12:51:05.225Z,16.95
2023-05-03T12:56:16.764Z,16.92
2023-05-03T13:06:24.926Z,17.15
2023-05-03T13:11:26.951Z,16.45
2023-05-03T13:16:29.962Z,15.85
2023-05-03T13:21:32.033Z,16.07
2023-05-03T13:26:34.082Z,16.06
2023-05-03T13:31:37.393Z,15.84
2023-05-03T13:36:39.026Z,16.11
2023-05-03T13:41:42.117Z,16.06
2023-05-03T13:46:44.009Z,15.96
2023-05-03T13:51:45.723Z,15.75
2023-05-03T13:56:47.841Z,15.58
2023-05-03T14:01:49.500Z,15.35
2023-05-03T14:06:52.010Z,15.08
2023-05-03T14:11:57.573Z,15.18
2023-05-03T14:17:05.271Z,15.33
2023-05-03T14:22:07.231Z,15.08
2023-05-03T14:27:09.105Z,14.85
2023-05-03T14:32:10.685Z,14.98
2023-05-03T14:37:14.951Z,14.94
2023-05-03T14:42:16.671Z,15.12
2023-05-03T14:47:18.404Z,14.84
2023-05-03T14:52:20.035Z,15.02
2023-05-03T14:57:21.713Z,15.22
2023-05-03T15:02:23.367Z,14.98
2023-05-03T15:07:25.238Z,14.99
2023-05-03T15:12:26.926Z,14.71
2023-05-03T15:17:28.589Z,14.79
2023-05-03T15:22:30.208Z,14.73
2023-05-03T15:27:32.048Z,14.88
2023-05-03T15:32:33.861Z,14.99
2023-05-03T15:37:37.482Z,14.79
2023-05-03T15:42:39.701Z,14.89
2023-05-03T15:47:41.845Z,16.52
2023-05-03T15:52:44.054Z,16.72
2023-05-03T15:57:45.802Z,17.04
2023-05-03T16:02:47.526Z,15.95
2023-05-03T16:07:49.512Z,15.59
2023-05-03T16:12:51.287Z,15.04
2023-05-03T16:17:54.240Z,14.64
2023-05-03T16:22:56.140Z,14.70
2023-05-03T16:27:57.818Z,14.50
2023-05-03T16:32:59.566Z,14.60
2023-05-03T16:38:01.612Z,14.56
2023-05-03T16:43:03.672Z,14.41
2023-05-03T16:48:08.176Z,14.35
2023-05-03T16:53:11.973Z,14.31
2023-05-03T16:58:13.733Z,14.32
2023-05-03T17:03:16.139Z,14.25
2023-05-03T17:08:17.910Z,14.13
2023-05-03T17:13:19.729Z,14.06
2023-05-03T17:18:21.495Z,13.89
2023-05-03T17:23:23.130Z,13.70
2023-05-03T17:28:25.679Z,13.68
2023-05-03T17:33:27.391Z,13.63
2023-05-03T17:38:28.980Z,13.53
2023-05-03T17:43:30.702Z,13.50
2023-05-03T17:48:32.290Z,13.36
2023-05-03T17:53:34.304Z,13.31
2023-05-03T17:58:35.876Z,13.38
2023-05-03T18:03:38.061Z,13.10
2023-05-03T18:08:39.879Z,12.92
2023-05-03T18:13:41.575Z,12.80
2023-05-03T18:18:43.241Z,12.75
2023-05-03T18:23:46.125Z,12.61
2023-05-03T18:28:48.212Z,12.34
2023-05-03T18:33:49.894Z,12.56
2023-05-03T18:38:53.723Z,12.25
2023-05-03T18:43:57.154Z,12.35
2023-05-03T18:48:59.142Z,12.34
2023-05-03T18:54:01.403Z,12.31
2023-05-03T18:59:03.044Z,12.02
2023-05-03T19:04:05.488Z,11.90
2023-05-03T19:09:11.601Z,11.75
2023-05-03T19:14:13.301Z,11.54
2023-05-03T19:19:15.565Z,11.38
2023-05-03T19:24:17.217Z,11.22
2023-05-03T19:29:19.564Z,10.99
2023-05-03T19:34:21.270Z,10.80
2023-05-03T19:39:22.986Z,10.67
2023-05-03T19:44:28.202Z,10.55
2023-05-03T19:49:30.014Z,10.49
2023-05-03T19:54:33.100Z,10.14
2023-05-03T19:59:34.915Z,9.88
2023-05-03T20:04:36.761Z,9.91
2023-05-03T20:09:38.372Z,10.04
2023-05-03T20:14:40.080Z,10.09
2023-05-03T20:19:41.811Z,9.81
2023-05-03T20:24:43.522Z,9.68
2023-05-03T20:29:45.135Z,9.66
2023-05-03T20:34:47.312Z,9.57
2023-05-03T20:39:48.909Z,9.54
2023-05-03T20:44:54.062Z,9.38
2023-05-03T20:49:55.623Z,9.15
2023-05-03T20:54:57.215Z,9.05
2023-05-03T20:59:59.809Z,9.12
2023-05-03T21:05:01.516Z,9.00
2023-05-03T21:10:03.493Z,8.98
2023-05-03T21:15:05.780Z,8.83
2023-05-03T21:20:08.027Z,8.60
2023-05-03T21:25:09.935Z,8.46
2023-05-03T21:30:13.635Z,8.53
2023-05-03T21:35:16.401Z,8.46
2023-05-03T21:40:18.247Z,8.45
2023-05-03T21:45:20.060Z,8.29
2023-05-03T21:50:23.570Z,8.12
2023-05-03T21:55:25.329Z,7.94
2023-05-03T22:00:27.341Z,7.75
2023-05-03T22:05:29.049Z,7.75
2023-05-03T22:10:30.771Z,7.74
2023-05-03T22:15:32.476Z,7.56
2023-05-03T22:20:34.103Z,7.55
2023-05-03T22:25:35.685Z,7.55
2023-05-03T22:30:37.537Z,7.60
2023-05-03T22:35:43.712Z,7.51
2023-05-03T22:40:53.808Z,7.27
2023-05-03T22:46:14.443Z,7.18
2023-05-03T22:51:19.415Z,7.28
2023-05-03T22:56:21.599Z,7.26
2023-05-03T23:01:26.020Z,7.22
2023-05-03T23:06:27.882Z,7.20
2023-05-03T23:11:29.501Z,7.22
2023-05-03T23:16:31.138Z,7.07
2023-05-03T23:21:33.849Z,6.98
2023-05-03T23:26:35.544Z,6.87
2023-05-03T23:31:38.514Z,6.81
2023-05-03T23:36:40.575Z,6.81
2023-05-03T23:41:42.272Z,6.99
2023-05-03T23:46:43.937Z,6.76
2023-05-03T23:51:45.665Z,6.65
2023-05-03T23:56:47.218Z,6.69
